sensor_id;sensor_type;location;lat;lon;timestamp;temperature;humidity
18177;DHT22;9213;50.858;3.964;2023-03-01T00:00:17;4.90;39.10
18177;DHT22;9213;50.858;3.964;2023-03-01T00:02:44;4.90;39.10
18177;DHT22;9213;50.858;3.964;2023-03-01T00:05:11;4.90;39.10
18177;DHT22;9213;50.858;3.964;2023-03-01T00:07:38;4.90;39.20
18177;DHT22;9213;50.858;3.964;2023-03-01T00:10:07;4.90;39.20
18177;DHT22;9213;50.858;3.964;2023-03-01T00:12:34;4.90;39.30
18177;DHT22;9213;50.858;3.964;2023-03-01T00:15:02;4.90;39.30
18177;DHT22;9213;50.858;3.964;2023-03-01T00:17:30;4.80;39.30
18177;DHT22;9213;50.858;3.964;2023-03-01T00:19:57;4.80;39.40
18177;DHT22;9213;50.858;3.964;2023-03-01T00:22:24;4.80;39.40
18177;DHT22;9213;50.858;3.964;2023-03-01T00:24:53;4.80;39.40
18177;DHT22;9213;50.858;3.964;2023-03-01T00:27:21;4.80;39.40
18177;DHT22;9213;50.858;3.964;2023-03-01T00:29:48;4.80;39.50
18177;DHT22;9213;50.858;3.964;2023-03-01T00:32:15;4.80;39.50
18177;DHT22;9213;50.858;3.964;2023-03-01T00:34:42;4.80;39.50
18177;DHT22;9213;50.858;3.964;2023-03-01T00:37:19;4.80;39.60
18177;DHT22;9213;50.858;3.964;2023-03-01T00:39:47;4.80;39.50
18177;DHT22;9213;50.858;3.964;2023-03-01T00:42:14;4.80;39.60
18177;DHT22;9213;50.858;3.964;2023-03-01T00:44:42;4.80;39.60
18177;DHT22;9213;50.858;3.964;2023-03-01T00:47:09;4.70;39.70
18177;DHT22;9213;50.858;3.964;2023-03-01T00:49:36;4.80;39.70
18177;DHT22;9213;50.858;3.964;2023-03-01T00:52:03;4.70;39.70
18177;DHT22;9213;50.858;3.964;2023-03-01T00:54:30;4.80;39.70
18177;DHT22;9213;50.858;3.964;2023-03-01T00:56:57;4.70;39.70
18177;DHT22;9213;50.858;3.964;2023-03-01T00:59:24;4.70;39.80
18177;DHT22;9213;50.858;3.964;2023-03-01T01:01:52;4.70;39.80
18177;DHT22;9213;50.858;3.964;2023-03-01T01:04:19;4.70;39.90
18177;DHT22;9213;50.858;3.964;2023-03-01T01:06:46;4.70;39.90
18177;DHT22;9213;50.858;3.964;2023-03-01T01:09:15;4.70;39.90
18177;DHT22;9213;50.858;3.964;2023-03-01T01:11:44;4.70;39.90
18177;DHT22;9213;50.858;3.964;2023-03-01T01:14:11;4.70;39.90
18177;DHT22;9213;50.858;3.964;2023-03-01T01:16:38;4.70;40.00
18177;DHT22;9213;50.858;3.964;2023-03-01T01:19:06;4.70;40.00
18177;DHT22;9213;50.858;3.964;2023-03-01T01:21:33;4.60;40.80
18177;DHT22;9213;50.858;3.964;2023-03-01T01:24:00;4.60;40.10
18177;DHT22;9213;50.858;3.964;2023-03-01T01:26:30;4.60;40.10
18177;DHT22;9213;50.858;3.964;2023-03-01T01:28:58;4.60;40.20
18177;DHT22;9213;50.858;3.964;2023-03-01T01:31:26;4.60;40.30
18177;DHT22;9213;50.858;3.964;2023-03-01T01:33:54;4.50;40.40
18177;DHT22;9213;50.858;3.964;2023-03-01T01:36:22;4.50;40.50
18177;DHT22;9213;50.858;3.964;2023-03-01T01:38:50;4.50;40.50
18177;DHT22;9213;50.858;3.964;2023-03-01T01:41:17;4.50;40.60
18177;DHT22;9213;50.858;3.964;2023-03-01T01:43:46;4.40;40.50
18177;DHT22;9213;50.858;3.964;2023-03-01T01:46:19;4.40;40.70
18177;DHT22;9213;50.858;3.964;2023-03-01T01:48:52;4.40;40.70
18177;DHT22;9213;50.858;3.964;2023-03-01T01:51:25;4.40;40.80
18177;DHT22;9213;50.858;3.964;2023-03-01T01:53:55;4.40;40.90
18177;DHT22;9213;50.858;3.964;2023-03-01T01:56:24;4.40;41.00
18177;DHT22;9213;50.858;3.964;2023-03-01T01:58:52;4.30;41.00
18177;DHT22;9213;50.858;3.964;2023-03-01T02:01:20;4.30;41.10
18177;DHT22;9213;50.858;3.964;2023-03-01T02:03:48;4.30;41.10
18177;DHT22;9213;50.858;3.964;2023-03-01T02:06:19;4.30;41.10
18177;DHT22;9213;50.858;3.964;2023-03-01T02:08:49;4.30;41.20
18177;DHT22;9213;50.858;3.964;2023-03-01T02:11:17;4.30;41.20
18177;DHT22;9213;50.858;3.964;2023-03-01T02:13:47;4.30;41.30
18177;DHT22;9213;50.858;3.964;2023-03-01T02:16:15;4.30;41.40
18177;DHT22;9213;50.858;3.964;2023-03-01T02:18:43;4.30;41.40
18177;DHT22;9213;50.858;3.964;2023-03-01T02:21:29;4.20;41.60
18177;DHT22;9213;50.858;3.964;2023-03-01T02:23:59;4.20;41.60
18177;DHT22;9213;50.858;3.964;2023-03-01T02:26:34;4.20;41.50
18177;DHT22;9213;50.858;3.964;2023-03-01T02:29:04;4.20;41.70
18177;DHT22;9213;50.858;3.964;2023-03-01T02:31:32;4.20;41.70
18177;DHT22;9213;50.858;3.964;2023-03-01T02:34:09;4.20;41.80
18177;DHT22;9213;50.858;3.964;2023-03-01T02:36:40;4.20;41.80
18177;DHT22;9213;50.858;3.964;2023-03-01T02:39:12;4.20;41.90
18177;DHT22;9213;50.858;3.964;2023-03-01T02:41:44;4.20;42.00
18177;DHT22;9213;50.858;3.964;2023-03-01T02:44:14;4.10;42.00
18177;DHT22;9213;50.858;3.964;2023-03-01T02:46:47;4.20;42.10
18177;DHT22;9213;50.858;3.964;2023-03-01T02:49:23;4.20;42.10
18177;DHT22;9213;50.858;3.964;2023-03-01T02:52:13;4.10;42.20
18177;DHT22;9213;50.858;3.964;2023-03-01T02:54:47;4.20;42.20
18177;DHT22;9213;50.858;3.964;2023-03-01T02:57:17;4.10;42.10
18177;DHT22;9213;50.858;3.964;2023-03-01T02:59:45;4.10;42.20
18177;DHT22;9213;50.858;3.964;2023-03-01T03:02:21;4.10;42.40
18177;DHT22;9213;50.858;3.964;2023-03-01T03:05:02;4.10;42.50
18177;DHT22;9213;50.858;3.964;2023-03-01T03:07:32;4.10;42.40
18177;DHT22;9213;50.858;3.964;2023-03-01T03:09:59;4.10;42.50
18177;DHT22;9213;50.858;3.964;2023-03-01T03:12:26;4.10;42.50
18177;DHT22;9213;50.858;3.964;2023-03-01T03:14:55;4.00;42.40
18177;DHT22;9213;50.858;3.964;2023-03-01T03:17:22;4.00;42.50
18177;DHT22;9213;50.858;3.964;2023-03-01T03:19:49;4.00;42.50
18177;DHT22;9213;50.858;3.964;2023-03-01T03:22:16;4.00;42.60
18177;DHT22;9213;50.858;3.964;2023-03-01T03:24:42;4.00;42.60
18177;DHT22;9213;50.858;3.964;2023-03-01T03:27:09;4.00;42.80
18177;DHT22;9213;50.858;3.964;2023-03-01T03:29:36;4.00;42.90
18177;DHT22;9213;50.858;3.964;2023-03-01T03:32:05;3.90;43.00
18177;DHT22;9213;50.858;3.964;2023-03-01T03:34:32;3.90;43.10
18177;DHT22;9213;50.858;3.964;2023-03-01T03:36:59;3.90;43.80
18177;DHT22;9213;50.858;3.964;2023-03-01T03:39:27;3.90;43.10
18177;DHT22;9213;50.858;3.964;2023-03-01T03:41:55;3.90;43.30
18177;DHT22;9213;50.858;3.964;2023-03-01T03:44:22;3.90;43.30
18177;DHT22;9213;50.858;3.964;2023-03-01T03:46:49;3.90;43.40
18177;DHT22;9213;50.858;3.964;2023-03-01T03:49:17;3.80;43.40
18177;DHT22;9213;50.858;3.964;2023-03-01T03:51:45;3.80;43.50
18177;DHT22;9213;50.858;3.964;2023-03-01T03:54:12;3.80;43.50
18177;DHT22;9213;50.858;3.964;2023-03-01T03:56:39;3.80;43.60
18177;DHT22;9213;50.858;3.964;2023-03-01T03:59:06;3.80;43.70
18177;DHT22;9213;50.858;3.964;2023-03-01T04:01:32;3.80;43.70
18177;DHT22;9213;50.858;3.964;2023-03-01T04:03:59;3.80;43.70
18177;DHT22;9213;50.858;3.964;2023-03-01T04:06:31;3.80;43.70
18177;DHT22;9213;50.858;3.964;2023-03-01T04:08:58;3.70;43.90
18177;DHT22;9213;50.858;3.964;2023-03-01T04:11:27;3.70;43.90
18177;DHT22;9213;50.858;3.964;2023-03-01T04:13:56;3.70;44.00
18177;DHT22;9213;50.858;3.964;2023-03-01T04:16:24;3.70;44.20
18177;DHT22;9213;50.858;3.964;2023-03-01T04:18:51;3.60;44.10
18177;DHT22;9213;50.858;3.964;2023-03-01T04:21:19;3.60;44.20
18177;DHT22;9213;50.858;3.964;2023-03-01T04:23:47;3.60;44.20
18177;DHT22;9213;50.858;3.964;2023-03-01T04:26:18;3.60;44.30
18177;DHT22;9213;50.858;3.964;2023-03-01T04:28:45;3.60;44.30
18177;DHT22;9213;50.858;3.964;2023-03-01T04:31:16;3.50;44.40
18177;DHT22;9213;50.858;3.964;2023-03-01T04:33:46;3.50;44.50
18177;DHT22;9213;50.858;3.964;2023-03-01T04:36:15;3.50;44.60
18177;DHT22;9213;50.858;3.964;2023-03-01T04:38:43;3.50;44.60
18177;DHT22;9213;50.858;3.964;2023-03-01T04:41:15;3.50;44.70
18177;DHT22;9213;50.858;3.964;2023-03-01T04:43:42;3.50;44.90
18177;DHT22;9213;50.858;3.964;2023-03-01T04:46:13;3.50;44.90
18177;DHT22;9213;50.858;3.964;2023-03-01T04:48:42;3.50;45.00
18177;DHT22;9213;50.858;3.964;2023-03-01T04:51:10;3.50;45.00
18177;DHT22;9213;50.858;3.964;2023-03-01T04:53:39;3.50;45.10
18177;DHT22;9213;50.858;3.964;2023-03-01T04:56:06;3.50;45.10
18177;DHT22;9213;50.858;3.964;2023-03-01T04:58:35;3.40;45.10
18177;DHT22;9213;50.858;3.964;2023-03-01T05:01:08;3.40;45.20
18177;DHT22;9213;50.858;3.964;2023-03-01T05:03:41;3.40;45.20
18177;DHT22;9213;50.858;3.964;2023-03-01T05:06:09;3.40;45.10
18177;DHT22;9213;50.858;3.964;2023-03-01T05:08:36;3.40;45.20
18177;DHT22;9213;50.858;3.964;2023-03-01T05:11:04;3.40;45.30
18177;DHT22;9213;50.858;3.964;2023-03-01T05:13:36;3.40;45.30
18177;DHT22;9213;50.858;3.964;2023-03-01T05:16:06;3.40;45.40
18177;DHT22;9213;50.858;3.964;2023-03-01T05:18:37;3.30;45.50
18177;DHT22;9213;50.858;3.964;2023-03-01T05:21:07;3.30;45.50
18177;DHT22;9213;50.858;3.964;2023-03-01T05:23:34;3.30;45.60
18177;DHT22;9213;50.858;3.964;2023-03-01T05:26:02;3.30;45.60
18177;DHT22;9213;50.858;3.964;2023-03-01T05:28:30;3.30;45.60
18177;DHT22;9213;50.858;3.964;2023-03-01T05:30:59;3.30;45.70
18177;DHT22;9213;50.858;3.964;2023-03-01T05:33:27;3.30;45.80
18177;DHT22;9213;50.858;3.964;2023-03-01T05:35:54;3.20;45.70
18177;DHT22;9213;50.858;3.964;2023-03-01T05:38:21;3.20;45.70
18177;DHT22;9213;50.858;3.964;2023-03-01T05:40:48;3.20;45.80
18177;DHT22;9213;50.858;3.964;2023-03-01T05:43:16;3.20;45.90
18177;DHT22;9213;50.858;3.964;2023-03-01T05:45:44;3.20;46.00
18177;DHT22;9213;50.858;3.964;2023-03-01T05:48:12;3.20;46.00
18177;DHT22;9213;50.858;3.964;2023-03-01T05:50:41;3.20;46.10
18177;DHT22;9213;50.858;3.964;2023-03-01T05:53:11;3.20;46.10
18177;DHT22;9213;50.858;3.964;2023-03-01T05:55:39;3.10;46.10
18177;DHT22;9213;50.858;3.964;2023-03-01T05:58:09;3.10;46.20
18177;DHT22;9213;50.858;3.964;2023-03-01T06:00:36;3.10;46.30
18177;DHT22;9213;50.858;3.964;2023-03-01T06:03:03;3.10;46.20
18177;DHT22;9213;50.858;3.964;2023-03-01T06:05:31;3.10;46.40
18177;DHT22;9213;50.858;3.964;2023-03-01T06:07:59;3.10;46.50
18177;DHT22;9213;50.858;3.964;2023-03-01T06:10:26;3.10;46.50
18177;DHT22;9213;50.858;3.964;2023-03-01T06:12:53;3.10;46.50
18177;DHT22;9213;50.858;3.964;2023-03-01T06:15:21;3.10;46.50
18177;DHT22;9213;50.858;3.964;2023-03-01T06:17:48;3.10;46.50
18177;DHT22;9213;50.858;3.964;2023-03-01T06:20:17;3.10;46.60
18177;DHT22;9213;50.858;3.964;2023-03-01T06:22:47;3.10;46.70
18177;DHT22;9213;50.858;3.964;2023-03-01T06:25:16;3.10;46.70
18177;DHT22;9213;50.858;3.964;2023-03-01T06:27:44;3.10;46.70
18177;DHT22;9213;50.858;3.964;2023-03-01T06:30:13;3.10;46.60
18177;DHT22;9213;50.858;3.964;2023-03-01T06:32:40;3.10;46.70
18177;DHT22;9213;50.858;3.964;2023-03-01T06:35:09;3.10;46.70
18177;DHT22;9213;50.858;3.964;2023-03-01T06:37:36;3.10;46.60
18177;DHT22;9213;50.858;3.964;2023-03-01T06:40:06;3.10;46.70
18177;DHT22;9213;50.858;3.964;2023-03-01T06:42:34;3.10;46.80
18177;DHT22;9213;50.858;3.964;2023-03-01T06:45:02;3.10;46.70
18177;DHT22;9213;50.858;3.964;2023-03-01T06:47:29;3.10;46.80
18177;DHT22;9213;50.858;3.964;2023-03-01T06:49:56;3.10;46.80
18177;DHT22;9213;50.858;3.964;2023-03-01T06:52:23;3.20;46.90
18177;DHT22;9213;50.858;3.964;2023-03-01T06:54:50;3.20;46.90
18177;DHT22;9213;50.858;3.964;2023-03-01T06:57:18;3.20;46.80
18177;DHT22;9213;50.858;3.964;2023-03-01T06:59:46;3.20;46.80
18177;DHT22;9213;50.858;3.964;2023-03-01T07:02:14;3.30;47.00
18177;DHT22;9213;50.858;3.964;2023-03-01T07:04:41;3.40;46.90
18177;DHT22;9213;50.858;3.964;2023-03-01T07:07:11;3.50;47.30
18177;DHT22;9213;50.858;3.964;2023-03-01T07:09:38;3.60;46.90
18177;DHT22;9213;50.858;3.964;2023-03-01T07:12:05;3.60;46.90
18177;DHT22;9213;50.858;3.964;2023-03-01T07:14:34;3.70;46.90
18177;DHT22;9213;50.858;3.964;2023-03-01T07:17:01;3.80;46.70
18177;DHT22;9213;50.858;3.964;2023-03-01T07:19:28;3.90;46.50
18177;DHT22;9213;50.858;3.964;2023-03-01T07:21:55;3.90;46.30
18177;DHT22;9213;50.858;3.964;2023-03-01T07:24:22;4.00;46.10
18177;DHT22;9213;50.858;3.964;2023-03-01T07:26:50;4.10;46.20
18177;DHT22;9213;50.858;3.964;2023-03-01T07:29:17;4.10;46.10
18177;DHT22;9213;50.858;3.964;2023-03-01T07:31:46;4.10;46.00
18177;DHT22;9213;50.858;3.964;2023-03-01T07:34:13;4.20;46.00
18177;DHT22;9213;50.858;3.964;2023-03-01T07:36:39;4.20;46.00
18177;DHT22;9213;50.858;3.964;2023-03-01T07:39:09;4.30;46.00
18177;DHT22;9213;50.858;3.964;2023-03-01T07:41:36;4.30;46.00
18177;DHT22;9213;50.858;3.964;2023-03-01T07:44:03;4.40;45.90
18177;DHT22;9213;50.858;3.964;2023-03-01T07:46:30;4.50;45.90
18177;DHT22;9213;50.858;3.964;2023-03-01T07:48:59;4.70;45.70
18177;DHT22;9213;50.858;3.964;2023-03-01T07:51:26;4.90;45.50
18177;DHT22;9213;50.858;3.964;2023-03-01T07:53:53;5.00;45.10
18177;DHT22;9213;50.858;3.964;2023-03-01T07:56:20;5.10;45.00
18177;DHT22;9213;50.858;3.964;2023-03-01T07:58:47;5.20;44.80
18177;DHT22;9213;50.858;3.964;2023-03-01T08:01:16;5.30;44.80
18177;DHT22;9213;50.858;3.964;2023-03-01T08:03:43;5.40;44.50
18177;DHT22;9213;50.858;3.964;2023-03-01T08:06:13;5.50;44.30
18177;DHT22;9213;50.858;3.964;2023-03-01T08:08:40;5.60;44.10
18177;DHT22;9213;50.858;3.964;2023-03-01T08:11:09;5.70;44.10
18177;DHT22;9213;50.858;3.964;2023-03-01T08:13:36;5.80;44.10
18177;DHT22;9213;50.858;3.964;2023-03-01T08:16:05;5.90;43.90
18177;DHT22;9213;50.858;3.964;2023-03-01T08:18:32;6.10;43.70
18177;DHT22;9213;50.858;3.964;2023-03-01T08:21:02;6.30;43.40
18177;DHT22;9213;50.858;3.964;2023-03-01T08:23:30;6.60;43.00
18177;DHT22;9213;50.858;3.964;2023-03-01T08:26:04;6.90;42.80
18177;DHT22;9213;50.858;3.964;2023-03-01T08:28:31;7.20;42.40
18177;DHT22;9213;50.858;3.964;2023-03-01T08:30:58;7.40;41.70
18177;DHT22;9213;50.858;3.964;2023-03-01T08:33:25;7.60;41.20
18177;DHT22;9213;50.858;3.964;2023-03-01T08:35:52;7.90;40.90
18177;DHT22;9213;50.858;3.964;2023-03-01T08:38:19;8.10;40.50
18177;DHT22;9213;50.858;3.964;2023-03-01T08:40:47;8.30;40.00
18177;DHT22;9213;50.858;3.964;2023-03-01T08:43:14;8.40;39.50
18177;DHT22;9213;50.858;3.964;2023-03-01T08:45:43;8.50;39.30
18177;DHT22;9213;50.858;3.964;2023-03-01T08:48:10;8.60;39.20
18177;DHT22;9213;50.858;3.964;2023-03-01T08:50:36;8.70;39.00
18177;DHT22;9213;50.858;3.964;2023-03-01T08:53:03;8.80;38.80
18177;DHT22;9213;50.858;3.964;2023-03-01T08:55:30;9.00;38.60
18177;DHT22;9213;50.858;3.964;2023-03-01T08:57:59;9.10;38.50
18177;DHT22;9213;50.858;3.964;2023-03-01T09:00:26;9.20;38.30
18177;DHT22;9213;50.858;3.964;2023-03-01T09:02:53;9.40;38.00
18177;DHT22;9213;50.858;3.964;2023-03-01T09:05:20;9.50;37.90
18177;DHT22;9213;50.858;3.964;2023-03-01T09:07:47;9.60;37.60
18177;DHT22;9213;50.858;3.964;2023-03-01T09:10:14;9.80;37.40
18177;DHT22;9213;50.858;3.964;2023-03-01T09:12:41;9.90;37.40
18177;DHT22;9213;50.858;3.964;2023-03-01T09:15:10;10.00;37.40
18177;DHT22;9213;50.858;3.964;2023-03-01T09:17:37;10.20;37.00
18177;DHT22;9213;50.858;3.964;2023-03-01T09:20:05;10.30;36.80
18177;DHT22;9213;50.858;3.964;2023-03-01T09:22:33;10.50;36.70
18177;DHT22;9213;50.858;3.964;2023-03-01T09:25:00;10.60;36.10
18177;DHT22;9213;50.858;3.964;2023-03-01T09:27:27;10.70;35.90
18177;DHT22;9213;50.858;3.964;2023-03-01T09:29:54;10.80;35.70
18177;DHT22;9213;50.858;3.964;2023-03-01T09:32:23;10.80;35.50
18177;DHT22;9213;50.858;3.964;2023-03-01T09:34:50;10.90;35.50
18177;DHT22;9213;50.858;3.964;2023-03-01T09:37:31;11.00;35.30
18177;DHT22;9213;50.858;3.964;2023-03-01T09:39:58;11.10;35.40
18177;DHT22;9213;50.858;3.964;2023-03-01T09:42:27;11.20;34.90
18177;DHT22;9213;50.858;3.964;2023-03-01T09:44:59;11.20;34.80
18177;DHT22;9213;50.858;3.964;2023-03-01T09:47:30;11.30;34.90
18177;DHT22;9213;50.858;3.964;2023-03-01T09:50:02;11.40;34.60
18177;DHT22;9213;50.858;3.964;2023-03-01T09:52:36;11.60;34.60
18177;DHT22;9213;50.858;3.964;2023-03-01T09:55:10;11.80;33.90
18177;DHT22;9213;50.858;3.964;2023-03-01T09:57:43;11.90;33.80
18177;DHT22;9213;50.858;3.964;2023-03-01T10:00:23;11.90;33.70
18177;DHT22;9213;50.858;3.964;2023-03-01T10:02:59;12.00;33.40
18177;DHT22;9213;50.858;3.964;2023-03-01T10:05:35;12.10;33.20
18177;DHT22;9213;50.858;3.964;2023-03-01T10:08:26;12.20;33.20
18177;DHT22;9213;50.858;3.964;2023-03-01T10:10:56;12.30;33.30
18177;DHT22;9213;50.858;3.964;2023-03-01T10:13:26;12.30;32.80
18177;DHT22;9213;50.858;3.964;2023-03-01T10:15:56;12.30;32.90
18177;DHT22;9213;50.858;3.964;2023-03-01T10:18:27;12.30;32.70
18177;DHT22;9213;50.858;3.964;2023-03-01T10:20:57;12.40;32.60
18177;DHT22;9213;50.858;3.964;2023-03-01T10:23:25;12.40;32.40
18177;DHT22;9213;50.858;3.964;2023-03-01T10:26:07;12.60;32.30
18177;DHT22;9213;50.858;3.964;2023-03-01T10:28:43;12.70;31.90
18177;DHT22;9213;50.858;3.964;2023-03-01T10:31:13;12.70;31.50
18177;DHT22;9213;50.858;3.964;2023-03-01T10:33:42;12.80;31.40
18177;DHT22;9213;50.858;3.964;2023-03-01T10:36:09;12.80;31.50
18177;DHT22;9213;50.858;3.964;2023-03-01T10:38:48;12.90;32.10
18177;DHT22;9213;50.858;3.964;2023-03-01T10:41:17;13.20;30.90
18177;DHT22;9213;50.858;3.964;2023-03-01T10:43:46;13.10;30.80
18177;DHT22;9213;50.858;3.964;2023-03-01T10:46:26;13.20;30.60
18177;DHT22;9213;50.858;3.964;2023-03-01T10:49:19;13.30;30.50
18177;DHT22;9213;50.858;3.964;2023-03-01T10:51:48;13.40;31.00
18177;DHT22;9213;50.858;3.964;2023-03-01T10:54:18;13.40;30.50
18177;DHT22;9213;50.858;3.964;2023-03-01T10:56:47;13.40;30.20
18177;DHT22;9213;50.858;3.964;2023-03-01T10:59:24;13.40;30.10
18177;DHT22;9213;50.858;3.964;2023-03-01T11:02:08;13.30;30.00
18177;DHT22;9213;50.858;3.964;2023-03-01T11:04:40;13.20;29.90
18177;DHT22;9213;50.858;3.964;2023-03-01T11:07:22;13.10;30.50
18177;DHT22;9213;50.858;3.964;2023-03-01T11:09:49;13.20;30.40
18177;DHT22;9213;50.858;3.964;2023-03-01T11:12:16;13.30;30.30
18177;DHT22;9213;50.858;3.964;2023-03-01T11:14:47;13.40;29.90
18177;DHT22;9213;50.858;3.964;2023-03-01T11:17:19;13.50;29.60
18177;DHT22;9213;50.858;3.964;2023-03-01T11:20:00;13.70;29.70
18177;DHT22;9213;50.858;3.964;2023-03-01T11:22:32;13.80;29.20
18177;DHT22;9213;50.858;3.964;2023-03-01T11:24:59;13.90;29.00
18177;DHT22;9213;50.858;3.964;2023-03-01T11:27:29;13.90;28.80
18177;DHT22;9213;50.858;3.964;2023-03-01T11:30:00;13.90;28.60
18177;DHT22;9213;50.858;3.964;2023-03-01T11:32:35;14.00;28.40
18177;DHT22;9213;50.858;3.964;2023-03-01T11:35:08;14.10;28.40
18177;DHT22;9213;50.858;3.964;2023-03-01T11:37:41;14.20;28.30
18177;DHT22;9213;50.858;3.964;2023-03-01T11:40:13;14.20;28.00
18177;DHT22;9213;50.858;3.964;2023-03-01T11:42:51;14.30;27.80
18177;DHT22;9213;50.858;3.964;2023-03-01T11:45:21;14.30;27.80
18177;DHT22;9213;50.858;3.964;2023-03-01T11:47:59;14.40;27.60
18177;DHT22;9213;50.858;3.964;2023-03-01T11:50:38;14.50;27.90
18177;DHT22;9213;50.858;3.964;2023-03-01T11:53:25;14.60;27.50
18177;DHT22;9213;50.858;3.964;2023-03-01T11:56:06;14.70;27.70
18177;DHT22;9213;50.858;3.964;2023-03-01T11:58:52;14.80;27.30
18177;DHT22;9213;50.858;3.964;2023-03-01T12:01:35;14.80;27.30
18177;DHT22;9213;50.858;3.964;2023-03-01T12:04:18;15.00;27.00
18177;DHT22;9213;50.858;3.964;2023-03-01T12:06:56;15.10;26.70
18177;DHT22;9213;50.858;3.964;2023-03-01T12:09:36;15.30;26.60
18177;DHT22;9213;50.858;3.964;2023-03-01T12:21:09;15.60;26.30
18177;DHT22;9213;50.858;3.964;2023-03-01T12:26:37;15.60;25.90
18177;DHT22;9213;50.858;3.964;2023-03-01T12:29:22;15.60;25.50
18177;DHT22;9213;50.858;3.964;2023-03-01T12:32:13;15.70;25.60
18177;DHT22;9213;50.858;3.964;2023-03-01T12:35:05;15.80;25.30
18177;DHT22;9213;50.858;3.964;2023-03-01T12:37:46;15.80;25.10
18177;DHT22;9213;50.858;3.964;2023-03-01T12:40:40;15.80;25.20
18177;DHT22;9213;50.858;3.964;2023-03-01T12:43:22;15.90;25.40
18177;DHT22;9213;50.858;3.964;2023-03-01T12:46:03;16.00;25.10
18177;DHT22;9213;50.858;3.964;2023-03-01T12:48:41;16.00;24.60
18177;DHT22;9213;50.858;3.964;2023-03-01T12:51:13;16.10;24.80
18177;DHT22;9213;50.858;3.964;2023-03-01T12:53:42;16.10;24.50
18177;DHT22;9213;50.858;3.964;2023-03-01T12:56:15;16.20;24.40
18177;DHT22;9213;50.858;3.964;2023-03-01T12:58:55;16.20;24.10
18177;DHT22;9213;50.858;3.964;2023-03-01T13:01:35;16.30;24.20
18177;DHT22;9213;50.858;3.964;2023-03-01T13:04:31;16.40;23.80
18177;DHT22;9213;50.858;3.964;2023-03-01T13:07:16;16.50;24.30
18177;DHT22;9213;50.858;3.964;2023-03-01T13:09:50;16.50;23.90
18177;DHT22;9213;50.858;3.964;2023-03-01T13:15:31;16.70;24.40
18177;DHT22;9213;50.858;3.964;2023-03-01T13:18:01;16.70;23.80
18177;DHT22;9213;50.858;3.964;2023-03-01T13:20:32;16.70;23.60
18177;DHT22;9213;50.858;3.964;2023-03-01T13:23:02;16.70;23.70
18177;DHT22;9213;50.858;3.964;2023-03-01T13:25:30;16.70;23.60
18177;DHT22;9213;50.858;3.964;2023-03-01T13:30:58;16.70;23.30
18177;DHT22;9213;50.858;3.964;2023-03-01T13:33:41;16.80;23.30
18177;DHT22;9213;50.858;3.964;2023-03-01T13:36:10;16.80;23.20
18177;DHT22;9213;50.858;3.964;2023-03-01T13:38:46;16.70;23.60
18177;DHT22;9213;50.858;3.964;2023-03-01T13:41:14;16.80;23.30
18177;DHT22;9213;50.858;3.964;2023-03-01T13:43:42;16.80;23.00
18177;DHT22;9213;50.858;3.964;2023-03-01T13:46:16;16.70;22.80
18177;DHT22;9213;50.858;3.964;2023-03-01T13:48:45;16.80;22.90
18177;DHT22;9213;50.858;3.964;2023-03-01T13:51:14;16.90;23.40
18177;DHT22;9213;50.858;3.964;2023-03-01T13:53:44;16.90;23.40
18177;DHT22;9213;50.858;3.964;2023-03-01T13:56:14;17.00;22.60
18177;DHT22;9213;50.858;3.964;2023-03-01T13:58:49;17.10;22.50
18177;DHT22;9213;50.858;3.964;2023-03-01T14:01:25;17.10;22.40
18177;DHT22;9213;50.858;3.964;2023-03-01T14:03:52;17.10;22.70
18177;DHT22;9213;50.858;3.964;2023-03-01T14:06:21;17.10;22.30
18177;DHT22;9213;50.858;3.964;2023-03-01T14:08:52;17.10;22.30
18177;DHT22;9213;50.858;3.964;2023-03-01T14:11:54;17.00;22.20
18177;DHT22;9213;50.858;3.964;2023-03-01T14:14:36;17.10;22.80
18177;DHT22;9213;50.858;3.964;2023-03-01T14:17:26;16.90;22.40
18177;DHT22;9213;50.858;3.964;2023-03-01T14:19:57;16.90;22.20
18177;DHT22;9213;50.858;3.964;2023-03-01T14:22:26;16.70;22.10
18177;DHT22;9213;50.858;3.964;2023-03-01T14:24:56;16.60;22.10
18177;DHT22;9213;50.858;3.964;2023-03-01T14:27:25;16.50;22.30
18177;DHT22;9213;50.858;3.964;2023-03-01T14:29:57;16.40;22.30
18177;DHT22;9213;50.858;3.964;2023-03-01T14:32:28;16.40;22.70
18177;DHT22;9213;50.858;3.964;2023-03-01T14:34:56;16.30;22.80
18177;DHT22;9213;50.858;3.964;2023-03-01T14:37:26;16.20;22.50
18177;DHT22;9213;50.858;3.964;2023-03-01T14:39:54;16.20;22.60
18177;DHT22;9213;50.858;3.964;2023-03-01T14:42:24;16.10;22.60
18177;DHT22;9213;50.858;3.964;2023-03-01T14:44:54;16.00;22.40
18177;DHT22;9213;50.858;3.964;2023-03-01T14:47:28;15.90;22.60
18177;DHT22;9213;50.858;3.964;2023-03-01T14:49:58;15.80;22.90
18177;DHT22;9213;50.858;3.964;2023-03-01T14:52:31;15.70;23.20
18177;DHT22;9213;50.858;3.964;2023-03-01T14:55:02;15.70;23.20
18177;DHT22;9213;50.858;3.964;2023-03-01T14:57:30;15.60;23.30
18177;DHT22;9213;50.858;3.964;2023-03-01T14:59:58;15.50;23.50
18177;DHT22;9213;50.858;3.964;2023-03-01T15:02:31;15.50;23.10
18177;DHT22;9213;50.858;3.964;2023-03-01T15:05:01;15.40;23.10
18177;DHT22;9213;50.858;3.964;2023-03-01T15:07:32;15.30;23.40
18177;DHT22;9213;50.858;3.964;2023-03-01T15:10:01;15.20;23.20
18177;DHT22;9213;50.858;3.964;2023-03-01T15:12:37;15.10;23.60
18177;DHT22;9213;50.858;3.964;2023-03-01T15:15:35;15.00;23.60
18177;DHT22;9213;50.858;3.964;2023-03-01T15:18:06;15.00;24.00
18177;DHT22;9213;50.858;3.964;2023-03-01T15:20:34;14.80;23.50
18177;DHT22;9213;50.858;3.964;2023-03-01T15:23:03;14.70;23.80
18177;DHT22;9213;50.858;3.964;2023-03-01T15:25:32;14.60;23.90
18177;DHT22;9213;50.858;3.964;2023-03-01T15:28:01;14.60;23.90
18177;DHT22;9213;50.858;3.964;2023-03-01T15:30:32;14.50;24.00
18177;DHT22;9213;50.858;3.964;2023-03-01T15:33:25;14.40;24.30
18177;DHT22;9213;50.858;3.964;2023-03-01T15:35:55;14.30;24.70
18177;DHT22;9213;50.858;3.964;2023-03-01T15:38:28;14.20;24.60
18177;DHT22;9213;50.858;3.964;2023-03-01T15:40:56;14.20;24.70
18177;DHT22;9213;50.858;3.964;2023-03-01T15:43:43;14.10;25.00
18177;DHT22;9213;50.858;3.964;2023-03-01T15:46:20;14.10;25.30
18177;DHT22;9213;50.858;3.964;2023-03-01T15:48:52;14.00;25.10
18177;DHT22;9213;50.858;3.964;2023-03-01T15:51:27;13.90;25.00
18177;DHT22;9213;50.858;3.964;2023-03-01T15:53:59;13.80;24.90
18177;DHT22;9213;50.858;3.964;2023-03-01T15:56:26;13.80;25.20
18177;DHT22;9213;50.858;3.964;2023-03-01T15:58:57;13.70;25.10
18177;DHT22;9213;50.858;3.964;2023-03-01T16:01:25;13.70;25.00
18177;DHT22;9213;50.858;3.964;2023-03-01T16:03:53;13.60;25.40
18177;DHT22;9213;50.858;3.964;2023-03-01T16:06:22;13.50;25.50
18177;DHT22;9213;50.858;3.964;2023-03-01T16:08:49;13.40;25.50
18177;DHT22;9213;50.858;3.964;2023-03-01T16:11:18;13.30;25.80
18177;DHT22;9213;50.858;3.964;2023-03-01T16:13:46;13.30;25.70
18177;DHT22;9213;50.858;3.964;2023-03-01T16:16:14;13.20;25.80
18177;DHT22;9213;50.858;3.964;2023-03-01T16:18:43;13.10;25.90
18177;DHT22;9213;50.858;3.964;2023-03-01T16:21:20;13.00;25.90
18177;DHT22;9213;50.858;3.964;2023-03-01T16:23:48;13.00;26.30
18177;DHT22;9213;50.858;3.964;2023-03-01T16:26:15;12.90;26.40
18177;DHT22;9213;50.858;3.964;2023-03-01T16:28:43;12.80;26.50
18177;DHT22;9213;50.858;3.964;2023-03-01T16:31:10;12.70;26.70
18177;DHT22;9213;50.858;3.964;2023-03-01T16:33:38;12.70;26.80